Time;durP1;ratioP1;P1;durP2;ratioP2;P2;SDS_P1;SDS_P2;PMS_P1;PMS_P2;Temp;Humidity;BMP_temperature;BMP_pressure;BME280_temperature;BME280_humidity;BME280_pressure;Samples;Min_cycle;Max_cycle;Signal;HPM_P1;HPM_P2
2021/09/02 00:01:37;;;;;;;26.02;14.52;;;;;;;13.96;90.82;101261.66;5019660;28;20559;-76
2021/09/02 00:04:03;;;;;;;21.25;14.27;;;;;;;13.96;90.02;101259.69;5015487;28;20081;-75
2021/09/02 00:06:28;;;;;;;23.58;15.05;;;;;;;13.92;91.03;101253.03;5002084;28;20026;-76
2021/09/02 00:08:54;;;;;;;27.42;15.30;;;;;;;13.93;91.18;101242.69;5022106;28;20033;-76
2021/09/02 00:11:19;;;;;;;30.38;16.00;;;;;;;13.86;92.04;101245.84;4999555;28;20037;-75
2021/09/02 00:13:45;;;;;;;28.98;17.17;;;;;;;13.83;92.15;101238.91;5017188;28;20041;-75
2021/09/02 00:16:10;;;;;;;29.90;16.42;;;;;;;13.79;92.67;101237.00;5007708;28;20109;-75
2021/09/02 00:18:36;;;;;;;28.15;16.27;;;;;;;13.82;92.08;101239.22;5030133;28;20029;-75
2021/09/02 00:21:01;;;;;;;24.58;14.73;;;;;;;13.78;91.23;101241.75;5035843;28;20044;-75
2021/09/02 00:23:27;;;;;;;30.52;17.08;;;;;;;13.78;92.79;101240.91;5024160;28;20025;-75
2021/09/02 00:25:52;;;;;;;28.73;16.38;;;;;;;13.79;92.37;101235.06;5038215;28;20063;-76
2021/09/02 00:28:19;;;;;;;29.00;16.50;;;;;;;13.76;92.04;101232.00;5035058;28;20025;-75
2021/09/02 00:30:45;;;;;;;29.88;17.20;;;;;;;13.73;92.69;101232.59;5027897;28;20037;-75
2021/09/02 00:33:17;;;;;;;37.58;18.33;;;;;;;13.74;92.37;101234.28;5042303;28;20393;-76
2021/09/02 00:35:43;;;;;;;30.40;17.20;;;;;;;13.72;92.17;101231.78;5019321;28;20126;-76
2021/09/02 00:38:09;;;;;;;24.75;15.93;;;;;;;13.73;90.90;101229.81;5058932;28;20025;-76
2021/09/02 00:40:34;;;;;;;28.38;16.85;;;;;;;13.70;91.37;101228.44;5021277;28;20060;-76
2021/09/02 00:42:59;;;;;;;30.15;17.15;;;;;;;13.73;91.35;101218.66;5035128;28;20103;-75
2021/09/02 00:45:25;;;;;;;30.63;17.25;;;;;;;13.69;91.76;101215.63;5053779;28;20021;-76
2021/09/02 00:47:51;;;;;;;31.38;18.63;;;;;;;13.71;92.01;101212.56;5021853;28;20033;-75
2021/09/02 00:50:16;;;;;;;31.33;18.02;;;;;;;13.71;91.60;101207.78;4994371;28;20091;-76
2021/09/02 00:52:42;;;;;;;33.35;18.75;;;;;;;13.69;91.60;101212.84;5010626;28;20021;-75
2021/09/02 00:55:08;;;;;;;35.08;18.35;;;;;;;13.69;91.88;101209.22;5021460;28;20029;-75
2021/09/02 00:57:34;;;;;;;31.27;17.85;;;;;;;13.68;91.69;101213.13;5002942;28;20071;-75
2021/09/02 01:00:18;;;;;;;33.17;19.35;;;;;;;13.65;92.35;101214.56;4996110;28;20025;-76
2021/09/02 01:02:45;;;;;;;33.95;19.30;;;;;;;13.64;92.06;101208.13;5027176;28;20090;-76
2021/09/02 01:05:10;;;;;;;38.53;19.60;;;;;;;13.61;92.31;101203.16;5038931;28;20076;-75
2021/09/02 01:07:36;;;;;;;32.33;19.60;;;;;;;13.59;91.91;101202.59;5018427;28;20532;-76
2021/09/02 01:10:02;;;;;;;33.45;19.55;;;;;;;13.59;92.11;101201.78;5011555;28;20029;-76
2021/09/02 01:12:47;;;;;;;32.78;20.65;;;;;;;13.52;91.64;101199.38;5020631;28;20116;-76
2021/09/02 01:15:24;;;;;;;34.70;20.83;;;;;;;13.52;92.73;101199.38;5042861;28;20041;-76
2021/09/02 01:17:51;;;;;;;36.97;20.67;;;;;;;13.51;92.25;101197.72;5039467;28;20028;-76
2021/09/02 01:23:39;;;;;;;40.67;20.63;;;;;;;13.48;92.65;101198.28;5048788;28;20112;-75
2021/09/02 01:26:15;;;;;;;32.53;18.75;;;;;;;13.49;91.75;101199.97;5027102;28;20038;-76
2021/09/02 01:28:41;;;;;;;31.65;19.25;;;;;;;13.46;92.22;101194.16;5030778;28;20025;-76
2021/09/02 01:31:07;;;;;;;32.17;20.52;;;;;;;13.44;92.20;101197.22;5035142;28;20033;-76
2021/09/02 01:33:32;;;;;;;32.03;19.15;;;;;;;13.41;91.92;101184.69;5033662;28;20036;-76
2021/09/02 01:35:58;;;;;;;34.78;20.42;;;;;;;13.41;91.49;101181.91;5032127;28;20032;-76
2021/09/02 01:38:23;;;;;;;38.03;20.73;;;;;;;13.39;91.49;101191.69;5051283;28;20025;-76
2021/09/02 01:40:49;;;;;;;26.95;18.42;;;;;;;13.45;91.17;101186.88;5026601;28;20037;-76
2021/09/02 01:43:15;;;;;;;34.38;18.30;;;;;;;13.43;90.87;101194.72;5017354;28;20099;-76
2021/09/02 01:45:41;;;;;;;35.50;20.50;;;;;;;13.41;91.24;101189.44;5052383;28;20115;-75
2021/09/02 01:48:07;;;;;;;29.98;18.50;;;;;;;13.40;90.60;101190.59;5042152;28;20068;-76
2021/09/02 01:50:35;;;;;;;30.20;19.15;;;;;;;13.39;89.90;101188.91;5043646;28;20029;-76
2021/09/02 01:53:05;;;;;;;30.25;18.52;;;;;;;13.38;90.26;101198.41;5046715;28;20064;-76
2021/09/02 01:55:30;;;;;;;32.83;20.45;;;;;;;13.34;91.14;101202.91;5025716;28;20108;-76
2021/09/02 01:57:56;;;;;;;30.10;19.83;;;;;;;13.30;90.88;101199.88;5053865;28;20083;-76
2021/09/02 02:00:21;;;;;;;32.88;20.38;;;;;;;13.29;90.64;101194.59;5034713;28;20051;-76
2021/09/02 02:02:47;;;;;;;39.30;22.88;;;;;;;13.25;92.02;101199.09;5038690;28;20068;-76
2021/09/02 02:05:14;;;;;;;40.08;23.05;;;;;;;13.18;92.41;101200.28;5037269;28;20060;-76
2021/09/02 02:07:40;;;;;;;35.15;21.77;;;;;;;13.18;92.15;101196.66;5020363;28;20060;-76
2021/09/02 02:10:07;;;;;;;39.33;23.38;;;;;;;13.14;92.38;101188.03;5021166;28;20033;-76
2021/09/02 02:12:33;;;;;;;34.55;22.10;;;;;;;13.10;92.22;101192.53;5031084;28;20473;-75
2021/09/02 02:14:58;;;;;;;36.90;23.23;;;;;;;13.09;92.55;101192.81;5027425;28;20034;-77
2021/09/02 02:17:24;;;;;;;40.03;23.70;;;;;;;13.04;93.10;101192.88;5025121;28;20020;-76
2021/09/02 02:19:49;;;;;;;43.60;23.48;;;;;;;13.02;92.86;101187.59;5022176;28;20037;-76
2021/09/02 02:22:15;;;;;;;42.50;24.70;;;;;;;12.99;93.28;101185.41;5033015;28;20032;-75
2021/09/02 02:24:40;;;;;;;39.67;24.48;;;;;;;12.94;93.41;101183.50;5025325;28;20040;-76
2021/09/02 02:27:06;;;;;;;38.42;23.27;;;;;;;12.97;92.81;101182.91;5017210;28;20034;-75
2021/09/02 02:29:31;;;;;;;41.72;24.10;;;;;;;12.93;93.03;101179.06;5045257;28;20029;-76
2021/09/02 02:31:57;;;;;;;42.58;24.73;;;;;;;12.97;92.79;101176.50;5039074;28;20031;-76
2021/09/02 02:34:22;;;;;;;40.60;24.92;;;;;;;12.91;93.20;101177.69;5009360;28;20033;-76
2021/09/02 02:36:48;;;;;;;38.90;24.83;;;;;;;12.86;93.43;101169.34;5035774;28;20540;-76
2021/09/02 02:39:13;;;;;;;35.17;23.40;;;;;;;12.83;92.76;101170.78;5024567;28;20374;-76
2021/09/02 02:41:39;;;;;;;41.78;24.20;;;;;;;12.80;92.91;101171.38;5024455;28;20056;-76
2021/09/02 02:44:04;;;;;;;34.63;23.13;;;;;;;12.81;93.26;101173.00;5032955;28;20029;-75
2021/09/02 02:46:30;;;;;;;44.08;24.52;;;;;;;12.78;93.07;101168.03;5026139;28;20052;-75
2021/09/02 02:48:55;;;;;;;37.10;23.35;;;;;;;12.76;92.96;101167.50;5001676;28;20037;-75
2021/09/02 02:51:21;;;;;;;37.47;23.48;;;;;;;12.80;91.76;101171.38;5047550;28;20033;-75
2021/09/02 02:53:46;;;;;;;37.45;23.48;;;;;;;12.79;92.62;101166.06;5018147;28;20421;-75
2021/09/02 02:56:12;;;;;;;40.28;22.50;;;;;;;12.74;92.16;101166.97;5022218;28;20390;-75
2021/09/02 02:58:38;;;;;;;39.75;24.48;;;;;;;12.71;93.34;101156.41;4998000;28;20029;-75
2021/09/02 03:01:03;;;;;;;47.58;24.50;;;;;;;12.64;93.52;101156.72;5037412;28;20025;-76
2021/09/02 03:03:29;;;;;;;38.42;23.50;;;;;;;12.65;92.76;101152.84;4995218;28;20058;-76
2021/09/02 03:05:54;;;;;;;38.58;23.35;;;;;;;12.68;92.46;101163.41;5032169;28;20044;-77
2021/09/02 03:08:20;;;;;;;39.63;23.38;;;;;;;12.63;92.85;101159.81;5022303;28;20090;-76
2021/09/02 03:10:45;;;;;;;44.08;23.73;;;;;;;12.59;93.17;101165.16;5024394;28;20037;-76
2021/09/02 03:13:11;;;;;;;41.85;26.05;;;;;;;12.57;93.46;101152.63;5000476;28;20029;-76
2021/09/02 03:15:36;;;;;;;43.45;26.05;;;;;;;12.53;93.65;101153.19;5023641;28;20095;-76
2021/09/02 03:18:02;;;;;;;44.50;25.60;;;;;;;12.47;94.18;101137.66;5039351;28;20020;-76
2021/09/02 03:20:27;;;;;;;43.28;25.52;;;;;;;12.45;94.49;101137.13;5016363;28;20473;-76
2021/09/02 03:22:52;;;;;;;42.22;24.63;;;;;;;12.46;94.46;101143.53;5025531;28;20501;-76
2021/09/02 03:25:18;;;;;;;41.95;25.42;;;;;;;12.46;94.17;101140.75;5018102;28;20095;-76
2021/09/02 03:27:44;;;;;;;42.90;25.08;;;;;;;12.45;94.22;101144.63;5008380;28;20029;-76
2021/09/02 03:30:10;;;;;;;39.00;23.80;;;;;;;12.39;94.19;101141.06;5029202;28;20060;-75
2021/09/02 03:32:35;;;;;;;41.88;23.80;;;;;;;12.41;92.80;101141.59;5022748;28;20511;-75
2021/09/02 03:35:01;;;;;;;40.65;23.80;;;;;;;12.40;93.18;101139.13;5014099;28;20029;-76
2021/09/02 03:37:26;;;;;;;38.45;24.75;;;;;;;12.33;93.83;101147.78;5007819;28;20026;-76
2021/09/02 03:39:52;;;;;;;39.28;24.33;;;;;;;12.28;94.35;101137.50;5005312;28;20025;-76
2021/09/02 03:42:17;;;;;;;39.72;23.77;;;;;;;12.24;93.90;101130.88;5017792;28;20033;-76
2021/09/02 03:44:43;;;;;;;41.95;24.65;;;;;;;12.21;94.91;101130.63;5020142;28;20032;-75
2021/09/02 03:47:08;;;;;;;39.60;23.77;;;;;;;12.23;94.42;101133.94;5012689;28;20473;-75
2021/09/02 03:49:34;;;;;;;39.05;25.08;;;;;;;12.19;94.15;101136.47;4995856;28;20021;-76
2021/09/02 03:51:59;;;;;;;39.13;23.88;;;;;;;12.20;94.27;101127.03;5022665;28;20025;-75
2021/09/02 03:54:25;;;;;;;36.95;22.13;;;;;;;12.25;93.20;101131.69;5037003;28;20037;-76
2021/09/02 03:56:51;;;;;;;43.47;24.23;;;;;;;12.19;94.05;101133.69;5014297;28;20032;-75
2021/09/02 03:59:16;;;;;;;36.45;22.73;;;;;;;12.18;93.41;101129.25;5006476;28;20033;-76
2021/09/02 04:01:42;;;;;;;38.60;23.85;;;;;;;12.18;93.84;101126.47;5030123;28;20036;-76
2021/09/02 04:04:07;;;;;;;41.60;24.38;;;;;;;12.15;94.17;101138.19;5033945;28;20057;-75
2021/09/02 04:06:33;;;;;;;41.67;23.27;;;;;;;12.10;93.83;101129.88;5005553;28;20028;-75
2021/09/02 04:08:58;;;;;;;40.42;23.80;;;;;;;12.09;94.12;101139.34;5036852;28;20025;-75
2021/09/02 04:11:24;;;;;;;38.83;22.65;;;;;;;12.12;93.59;101138.78;5044321;28;20036;-76
2021/09/02 04:13:49;;;;;;;37.85;22.60;;;;;;;12.12;93.31;101127.63;5003406;28;20030;-76
2021/09/02 04:16:15;;;;;;;39.72;24.05;;;;;;;12.10;93.84;101129.88;5023431;28;20091;-75
2021/09/02 04:18:40;;;;;;;40.55;23.45;;;;;;;12.07;94.34;101128.50;5030555;28;20029;-76
2021/09/02 04:21:06;;;;;;;37.53;22.52;;;;;;;12.05;93.47;101127.13;5007014;28;20029;-75
2021/09/02 04:23:32;;;;;;;39.38;22.27;;;;;;;12.08;93.10;101126.53;5007891;28;20025;-76
2021/09/02 04:25:58;;;;;;;39.25;23.20;;;;;;;12.05;93.56;101118.75;5044394;28;20082;-75
2021/09/02 04:28:24;;;;;;;38.97;23.27;;;;;;;12.10;92.75;101115.13;5041035;28;20109;-75
2021/09/02 04:30:49;;;;;;;39.53;23.55;;;;;;;12.04;93.97;101111.53;5022774;28;20057;-76
2021/09/02 04:33:15;;;;;;;42.05;24.23;;;;;;;12.02;93.76;101113.78;5040934;28;20037;-76
2021/09/02 04:35:40;;;;;;;41.35;24.35;;;;;;;11.99;93.80;101100.44;5018662;28;20482;-75
2021/09/02 04:38:06;;;;;;;43.55;25.20;;;;;;;11.94;95.03;101097.69;5037830;28;20504;-76
2021/09/02 04:40:31;;;;;;;38.50;23.40;;;;;;;11.91;94.57;101101.06;5030279;28;20436;-76
2021/09/02 04:42:57;;;;;;;46.60;26.08;;;;;;;11.90;95.04;101102.19;5020594;28;20465;-75
2021/09/02 04:45:22;;;;;;;43.00;24.67;;;;;;;11.88;94.62;101105.25;5039980;28;20030;-76
2021/09/02 04:47:50;;;;;;;39.88;25.08;;;;;;;11.83;94.66;101097.72;5020305;28;20088;-76
2021/09/02 04:50:16;;;;;;;40.38;25.30;;;;;;;11.86;94.96;101113.03;5049572;28;20112;-76
2021/09/02 04:52:41;;;;;;;37.85;23.38;;;;;;;11.87;95.01;101119.44;5048306;28;20037;-76
2021/09/02 04:55:07;;;;;;;38.30;22.73;;;;;;;11.88;94.24;101121.94;5044782;28;20386;-76
2021/09/02 04:57:33;;;;;;;41.83;25.15;;;;;;;11.85;94.59;101125.28;5020682;28;20036;-75
2021/09/02 04:59:58;;;;;;;39.25;23.73;;;;;;;11.89;94.13;101128.34;5015406;28;20021;-75
2021/09/02 05:02:24;;;;;;;40.08;25.10;;;;;;;11.83;94.91;101125.53;5019343;28;20025;-75
2021/09/02 05:04:49;;;;;;;41.60;24.48;;;;;;;11.84;94.20;101118.88;5022841;28;20481;-76
2021/09/02 05:07:14;;;;;;;42.50;24.75;;;;;;;11.79;95.03;101116.13;5038472;28;20033;-76
2021/09/02 05:09:40;;;;;;;43.80;25.55;;;;;;;11.77;94.98;101121.13;5001549;28;20029;-75
2021/09/02 05:12:06;;;;;;;40.67;25.02;;;;;;;11.78;94.60;101117.25;5026330;28;20035;-76
2021/09/02 05:14:32;;;;;;;42.20;25.45;;;;;;;11.77;95.22;101110.00;5025807;28;20025;-75
2021/09/02 05:16:57;;;;;;;39.22;24.20;;;;;;;11.77;95.28;101115.56;5031907;28;20040;-75
2021/09/02 05:19:23;;;;;;;39.08;22.77;;;;;;;11.80;94.08;101119.72;5037553;28;20474;-77
2021/09/02 05:21:48;;;;;;;36.90;22.88;;;;;;;11.88;94.77;101112.78;5009989;28;20033;-78
2021/09/02 05:24:14;;;;;;;32.38;21.27;;;;;;;11.96;95.18;101112.16;5044686;28;20087;-78
2021/09/02 05:26:39;;;;;;;34.13;22.65;;;;;;;12.02;95.01;101116.56;5038482;28;20033;-77
2021/09/02 05:29:05;;;;;;;40.45;23.75;;;;;;;12.02;95.08;101116.56;5042085;28;20036;-78
2021/09/02 05:31:30;;;;;;;38.83;23.85;;;;;;;12.00;95.23;101111.28;5046410;28;20037;-77
2021/09/02 05:33:56;;;;;;;35.85;22.90;;;;;;;12.03;95.15;101119.03;5053311;28;20029;-78
2021/09/02 05:36:21;;;;;;;39.38;23.65;;;;;;;12.00;95.71;101110.44;5056519;28;20025;-78
2021/09/02 05:38:47;;;;;;;37.85;23.08;;;;;;;11.97;96.02;101113.81;5046564;28;20025;-78
2021/09/02 05:41:12;;;;;;;39.85;23.33;;;;;;;11.99;96.17;101097.66;5053098;28;20051;-78
2021/09/02 05:43:38;;;;;;;40.97;24.30;;;;;;;11.98;96.75;101107.13;5039951;28;20029;-78
2021/09/02 05:46:04;;;;;;;41.20;23.00;;;;;;;12.08;96.20;101112.63;5033050;28;20151;-79
2021/09/02 05:48:29;;;;;;;40.55;22.35;;;;;;;12.16;95.39;101112.00;5020263;28;20065;-78
2021/09/02 05:50:55;;;;;;;34.17;22.13;;;;;;;12.24;95.24;101105.81;5044512;28;20036;-79
2021/09/02 05:53:21;;;;;;;40.75;23.63;;;;;;;12.24;95.55;101103.03;5028602;28;20033;-79
2021/09/02 05:55:48;;;;;;;42.38;24.15;;;;;;;12.26;95.90;101105.53;5038521;28;20084;-76
2021/09/02 05:58:14;;;;;;;38.88;23.10;;;;;;;12.25;96.23;101101.91;5027176;28;20025;-76
2021/09/02 06:00:39;;;;;;;40.65;23.73;;;;;;;12.24;96.53;101105.81;5035737;28;20390;-75
2021/09/02 06:03:05;;;;;;;38.63;22.33;;;;;;;12.30;95.81;101107.44;5038659;28;20040;-76
2021/09/02 06:05:30;;;;;;;41.00;23.48;;;;;;;12.33;96.26;101110.75;5017975;28;20442;-76
2021/09/02 06:07:56;;;;;;;40.03;24.55;;;;;;;12.40;96.66;101114.06;5034470;28;20025;-76
2021/09/02 06:10:22;;;;;;;40.28;23.15;;;;;;;12.42;96.65;101115.41;5004285;28;20056;-77
2021/09/02 06:12:48;;;;;;;40.35;24.65;;;;;;;12.45;96.96;101112.06;5019586;28;20398;-82
2021/09/02 06:15:13;;;;;;;38.05;22.38;;;;;;;12.52;96.34;101111.72;5031620;28;20029;-77
2021/09/02 06:17:39;;;;;;;37.67;21.85;;;;;;;12.60;96.10;101111.06;5037280;28;20029;-77
2021/09/02 06:20:05;;;;;;;37.65;21.25;;;;;;;12.68;95.84;101107.66;5023490;28;20032;-77
2021/09/02 06:22:31;;;;;;;39.83;21.52;;;;;;;12.79;95.47;101101.97;5032338;28;20432;-77
2021/09/02 06:24:56;;;;;;;32.53;19.67;;;;;;;12.90;94.44;101109.13;5031070;28;20121;-76
2021/09/02 06:27:22;;;;;;;38.20;22.80;;;;;;;12.97;94.49;101115.97;5023298;28;20482;-77
2021/09/02 06:29:47;;;;;;;35.85;21.77;;;;;;;13.08;93.71;101116.72;5017111;28;20040;-77
2021/09/02 06:32:13;;;;;;;37.95;20.70;;;;;;;13.17;93.13;101123.28;5035767;28;20110;-77
2021/09/02 06:34:38;;;;;;;32.05;19.73;;;;;;;13.28;92.76;101126.00;5055259;28;20021;-76
2021/09/02 06:37:04;;;;;;;35.08;20.77;;;;;;;13.39;92.34;101121.94;5018193;28;20736;-76
2021/09/02 06:39:29;;;;;;;36.47;20.60;;;;;;;13.46;92.05;101125.22;5021339;28;20029;-79
2021/09/02 06:41:55;;;;;;;32.95;19.17;;;;;;;13.60;91.35;101120.56;5019407;28;20026;-77
2021/09/02 06:44:20;;;;;;;36.38;20.20;;;;;;;13.73;90.58;101110.59;5028682;28;20107;-76
2021/09/02 06:46:46;;;;;;;35.75;19.83;;;;;;;13.82;89.84;101111.59;5035762;28;20025;-77
2021/09/02 06:49:11;;;;;;;31.83;18.15;;;;;;;13.94;89.68;101121.50;5044375;28;20030;-77
2021/09/02 06:51:37;;;;;;;30.83;18.05;;;;;;;14.04;89.07;101118.53;5012207;28;20025;-77
2021/09/02 06:54:03;;;;;;;29.27;18.73;;;;;;;14.13;88.74;101119.53;5019960;28;20454;-77
2021/09/02 06:56:29;;;;;;;33.92;19.33;;;;;;;14.25;88.99;101125.47;5011073;28;20116;-77
2021/09/02 06:58:54;;;;;;;35.22;19.35;;;;;;;14.34;88.16;101119.19;5015019;28;20022;-77
2021/09/02 07:01:20;;;;;;;33.17;18.60;;;;;;;14.46;87.87;101123.19;5027785;28;20112;-77
2021/09/02 07:03:45;;;;;;;34.55;18.90;;;;;;;14.60;87.60;101119.59;5039168;28;20057;-77
2021/09/02 07:06:11;;;;;;;29.00;17.92;;;;;;;14.74;87.19;101115.72;5029142;28;20041;-77
2021/09/02 07:08:37;;;;;;;29.95;18.20;;;;;;;14.84;86.26;101117.50;5019835;28;20041;-77
2021/09/02 07:11:04;;;;;;;32.65;18.10;;;;;;;14.94;85.87;101125.69;5006468;28;20056;-77
2021/09/02 07:13:30;;;;;;;33.28;18.42;;;;;;;15.07;86.10;101120.41;5015234;28;20031;-76
2021/09/02 07:15:55;;;;;;;32.20;17.88;;;;;;;15.18;85.21;101121.88;5019092;28;20025;-76
2021/09/02 07:18:21;;;;;;;28.05;17.23;;;;;;;15.35;85.15;101124.06;5008299;28;20029;-76
2021/09/02 07:20:47;;;;;;;26.00;16.85;;;;;;;15.50;84.66;101114.53;5008459;28;20076;-76
2021/09/02 07:23:12;;;;;;;27.20;17.63;;;;;;;15.63;84.15;101124.88;5013079;28;20064;-76
2021/09/02 07:25:38;;;;;;;25.70;16.85;;;;;;;15.72;83.74;101119.41;5046508;28;20044;-76
2021/09/02 07:28:04;;;;;;;27.90;16.73;;;;;;;15.79;83.20;101112.22;5008901;28;20053;-79
2021/09/02 07:30:29;;;;;;;31.70;17.15;;;;;;;15.91;82.38;101108.88;5010866;28;20061;-79
2021/09/02 07:32:55;;;;;;;24.85;15.00;;;;;;;16.08;82.55;101111.00;5042333;28;20107;-78
2021/09/02 07:35:21;;;;;;;29.50;17.45;;;;;;;16.23;81.52;101107.81;5025080;28;20041;-75
2021/09/02 07:37:46;;;;;;;29.38;17.55;;;;;;;16.26;80.89;101112.78;5030214;28;20473;-76
2021/09/02 07:40:12;;;;;;;29.40;17.52;;;;;;;16.33;79.76;101108.72;5035413;28;20431;-80
2021/09/02 07:42:38;;;;;;;29.05;17.67;;;;;;;16.39;80.10;101104.66;5047378;28;20067;-74
2021/09/02 07:45:04;;;;;;;28.83;17.48;;;;;;;16.48;80.64;101103.53;5040567;28;20028;-80
2021/09/02 07:47:32;;;;;;;31.65;17.75;;;;;;;16.57;79.57;101100.78;5007137;28;20035;-79
2021/09/02 07:49:57;;;;;;;31.08;17.15;;;;;;;16.61;79.19;101096.22;5051254;28;20052;-79
2021/09/02 07:52:23;;;;;;;30.88;17.38;;;;;;;16.65;79.34;101097.22;5035420;28;20026;-80
2021/09/02 07:54:48;;;;;;;28.48;16.33;;;;;;;16.78;78.81;101101.13;5039440;28;20029;-80
2021/09/02 07:57:14;;;;;;;27.10;15.68;;;;;;;16.98;78.89;101106.16;5050256;28;20025;-79
2021/09/02 07:59:40;;;;;;;30.63;15.98;;;;;;;17.04;78.11;101112.47;5043205;28;20029;-81
2021/09/02 08:02:06;;;;;;;24.42;16.58;;;;;;;17.03;77.95;101104.38;5038028;28;20028;-80
2021/09/02 08:04:31;;;;;;;29.08;16.48;;;;;;;17.27;77.88;101099.19;5035033;28;20061;-79
2021/09/02 08:06:57;;;;;;;27.48;16.48;;;;;;;17.26;76.95;101103.16;5021899;28;20044;-80
2021/09/02 08:09:22;;;;;;;25.52;15.52;;;;;;;17.34;76.99;101107.16;5036167;28;20389;-80
2021/09/02 08:11:48;;;;;;;25.25;15.68;;;;;;;17.46;76.52;101096.09;5045147;28;20033;-80
2021/09/02 08:14:13;;;;;;;24.33;14.15;;;;;;;17.61;76.85;101100.47;5042997;28;20029;-79
2021/09/02 08:16:39;;;;;;;24.95;14.82;;;;;;;17.73;76.17;101102.63;5032234;28;20026;-80
2021/09/02 08:19:04;;;;;;;27.85;15.20;;;;;;;17.77;75.34;101097.97;5022188;28;20034;-81
2021/09/02 08:21:30;;;;;;;23.52;15.90;;;;;;;17.87;75.90;101092.09;5028421;28;20025;-80
2021/09/02 08:23:58;;;;;;;26.92;16.85;;;;;;;17.87;74.41;101089.28;5035492;28;20037;-79
2021/09/02 08:26:24;;;;;;;25.23;15.10;;;;;;;18.01;74.53;101081.50;5033848;28;20073;-79
2021/09/02 08:28:49;;;;;;;23.02;14.63;;;;;;;18.13;74.89;101091.25;5028115;28;20428;-80
2021/09/02 08:31:15;;;;;;;25.25;13.88;;;;;;;18.21;74.12;101094.06;5031996;28;20053;-79
2021/09/02 08:33:40;;;;;;;23.23;15.38;;;;;;;18.31;74.13;101092.91;5058761;28;20035;-80
2021/09/02 08:36:06;;;;;;;25.13;14.23;;;;;;;18.35;73.75;101091.06;5039836;28;20029;-80
2021/09/02 08:38:31;;;;;;;24.48;14.38;;;;;;;18.46;73.16;101083.94;5043409;28;20075;-80
2021/09/02 08:40:57;;;;;;;25.30;15.45;;;;;;;18.44;72.15;101088.25;5024375;28;20041;-79
2021/09/02 08:43:22;;;;;;;21.95;13.68;;;;;;;18.51;72.72;101086.59;5047341;28;20074;-79
2021/09/02 08:45:48;;;;;;;26.38;15.65;;;;;;;18.58;72.13;101085.25;5029510;28;20041;-79
2021/09/02 08:48:13;;;;;;;21.48;13.57;;;;;;;18.62;71.84;101083.44;5043142;28;20033;-78
2021/09/02 08:50:39;;;;;;;22.85;15.18;;;;;;;18.72;71.43;101089.53;5048559;28;20041;-79
2021/09/02 08:53:05;;;;;;;21.90;13.57;;;;;;;18.86;71.79;101083.72;5046236;28;20025;-80
2021/09/02 08:55:31;;;;;;;21.23;13.40;;;;;;;19.01;72.11;101073.88;5058819;28;20091;-79
2021/09/02 08:57:56;;;;;;;22.88;14.00;;;;;;;19.04;70.72;101075.22;5002086;28;20021;-79
2021/09/02 09:00:23;;;;;;;24.92;15.32;;;;;;;19.11;71.05;101075.50;5026819;28;20502;-80
2021/09/02 09:02:58;;;;;;;22.83;13.85;;;;;;;19.27;70.15;101079.38;5058055;28;20041;-79
2021/09/02 09:05:23;;;;;;;19.65;13.00;;;;;;;19.27;69.15;101076.56;5032221;28;20056;-80
2021/09/02 09:07:49;;;;;;;19.63;13.20;;;;;;;19.33;68.78;101066.75;5053425;28;20033;-79
2021/09/02 09:10:22;;;;;;;18.42;12.05;;;;;;;19.51;69.34;101070.31;5023670;28;20497;-80
2021/09/02 09:12:50;;;;;;;22.92;13.93;;;;;;;19.57;69.82;101068.94;5044610;28;20041;-80
2021/09/02 09:15:19;;;;;;;20.13;13.70;;;;;;;19.71;69.25;101063.06;5033565;28;20038;-79
2021/09/02 09:17:45;;;;;;;20.65;13.25;;;;;;;19.70;67.56;101078.34;5010086;28;20451;-79
2021/09/02 09:20:11;;;;;;;21.50;11.38;;;;;;;19.89;67.50;101058.13;5037877;28;20036;-78
2021/09/02 09:22:36;;;;;;;17.05;11.27;;;;;;;20.02;67.77;101061.84;5050207;28;20051;-81
2021/09/02 09:25:07;;;;;;;16.30;11.38;;;;;;;20.17;67.54;101057.56;5037619;28;20030;-80
2021/09/02 09:27:40;;;;;;;18.70;11.90;;;;;;;20.30;68.32;101068.53;5032633;28;20044;-80
2021/09/02 09:30:15;;;;;;;18.75;11.48;;;;;;;20.28;66.90;101053.97;5044998;28;20051;-80
2021/09/02 09:32:47;;;;;;;16.25;9.85;;;;;;;20.48;67.54;101055.09;5030064;28;20040;-80
2021/09/02 09:35:32;;;;;;;17.30;10.35;;;;;;;20.63;68.08;101059.28;5055380;28;20029;-80
2021/09/02 09:38:10;;;;;;;17.73;10.95;;;;;;;20.64;65.66;101057.28;5045709;28;20078;-81
2021/09/02 09:40:44;;;;;;;16.67;10.27;;;;;;;20.77;65.09;101056.13;5031712;28;20041;-80
2021/09/02 09:43:11;;;;;;;16.65;11.35;;;;;;;20.66;63.72;101052.09;5007067;28;20128;-80
2021/09/02 09:45:45;;;;;;;16.52;10.57;;;;;;;20.75;64.52;101050.84;5024674;28;20068;-79
2021/09/02 09:48:17;;;;;;;13.57;8.98;;;;;;;20.96;65.30;101047.09;5044636;28;20026;-80
2021/09/02 09:51:01;;;;;;;14.55;10.23;;;;;;;20.97;65.67;101045.91;5049719;28;20029;-80
2021/09/02 09:53:27;;;;;;;14.93;9.38;;;;;;;21.13;64.76;101044.03;5044587;28;20029;-80
2021/09/02 09:55:53;;;;;;;17.08;10.35;;;;;;;21.10;63.69;101044.75;5036524;28;20029;-79
2021/09/02 09:58:20;;;;;;;18.17;9.45;;;;;;;21.21;63.61;101059.22;5049948;28;20432;-78
2021/09/02 10:00:46;;;;;;;13.45;8.82;;;;;;;21.26;62.77;101041.22;5021157;28;20045;-80
2021/09/02 10:03:11;;;;;;;14.43;9.40;;;;;;;21.30;62.16;101033.69;5040719;28;20670;-80
2021/09/02 10:05:37;;;;;;;15.48;9.18;;;;;;;21.38;62.67;101038.41;5040495;28;20041;-82
2021/09/02 10:08:04;;;;;;;13.50;8.75;;;;;;;21.50;62.56;101044.03;5023358;28;20033;-82
2021/09/02 10:10:29;;;;;;;15.60;8.65;;;;;;;21.62;62.61;101038.38;5012307;28;20032;-81
2021/09/02 10:12:55;;;;;;;14.13;9.27;;;;;;;21.59;61.66;101032.59;5046019;28;20029;-80
2021/09/02 10:15:20;;;;;;;15.95;8.95;;;;;;;21.55;62.24;101026.84;4997193;28;20493;-80
2021/09/02 10:17:46;;;;;;;11.90;8.45;;;;;;;21.62;63.21;101035.56;5016088;28;20026;-80
2021/09/02 10:20:19;;;;;;;13.15;8.45;;;;;;;21.59;61.29;101033.44;5021280;28;20033;-78
2021/09/02 10:22:45;;;;;;;18.13;9.45;;;;;;;21.61;61.81;101028.25;5037588;28;20043;-79
2021/09/02 10:25:30;;;;;;;14.75;9.77;;;;;;;21.53;61.12;101019.91;5044001;28;20096;-80
2021/09/02 10:27:58;;;;;;;13.90;8.75;;;;;;;21.63;61.61;101025.88;5039681;28;20029;-80
2021/09/02 10:30:24;;;;;;;11.50;7.95;;;;;;;21.78;61.63;101024.31;5039547;28;20025;-80
2021/09/02 10:32:50;;;;;;;13.15;8.77;;;;;;;21.86;61.14;101028.19;5044639;28;20031;-80
2021/09/02 10:35:15;;;;;;;14.95;9.40;;;;;;;21.74;59.97;101029.03;5049662;28;20481;-79
2021/09/02 10:37:43;;;;;;;12.52;8.60;;;;;;;21.75;60.84;101018.56;5040639;28;20079;-80
2021/09/02 10:40:15;;;;;;;13.60;8.20;;;;;;;21.89;60.96;101024.63;5039127;28;20037;-80
2021/09/02 10:42:44;;;;;;;13.02;8.52;;;;;;;21.99;59.98;101026.97;5041820;28;20029;-80
2021/09/02 10:45:26;;;;;;;14.75;8.60;;;;;;;22.04;60.36;101021.06;5022657;28;20025;-80
2021/09/02 10:48:09;;;;;;;11.52;7.65;;;;;;;22.17;60.42;101012.50;5020282;28;20025;-78
2021/09/02 10:50:42;;;;;;;13.27;8.40;;;;;;;22.28;60.71;101010.81;5026818;28;20029;-79
2021/09/02 10:53:15;;;;;;;11.70;7.55;;;;;;;22.29;60.77;101018.97;5030666;28;20038;-79
2021/09/02 10:55:47;;;;;;;14.90;8.68;;;;;;;22.33;59.65;101019.06;5023463;28;20025;-78
2021/09/02 10:58:41;;;;;;;16.77;8.63;;;;;;;22.36;59.05;101026.81;5040311;28;20030;-79
2021/09/02 11:01:29;;;;;;;13.57;8.75;;;;;;;22.40;59.30;101015.59;5042570;28;20029;-78
2021/09/02 11:03:56;;;;;;;14.63;8.57;;;;;;;22.39;60.45;101014.78;5044402;28;20068;-79
2021/09/02 11:06:21;;;;;;;13.82;8.98;;;;;;;22.47;58.92;101016.63;5041031;28;20033;-79
2021/09/02 11:08:47;;;;;;;10.63;7.40;;;;;;;22.60;60.08;101008.06;5042327;28;20029;-79
2021/09/02 11:11:20;;;;;;;12.48;8.05;;;;;;;22.62;59.78;101015.00;5037856;28;20041;-78